createdAt,value
2023-07-24T00:00:54.287Z,0.00
2023-07-24T00:01:54.265Z,0.00
2023-07-24T00:02:54.268Z,0.00
2023-07-24T00:03:56.212Z,0.00
2023-07-24T00:04:54.266Z,0.00
2023-07-24T00:05:54.205Z,0.00
2023-07-24T00:06:54.213Z,0.00
2023-07-24T00:07:54.171Z,0.00
2023-07-24T00:08:54.180Z,0.00
2023-07-24T00:09:54.144Z,0.00
2023-07-24T00:10:54.721Z,0.00
2023-07-24T00:11:56.114Z,0.00
2023-07-24T00:12:54.126Z,0.00
2023-07-24T00:13:54.107Z,0.00
2023-07-24T00:14:54.128Z,0.00
2023-07-24T00:15:54.083Z,0.00
2023-07-24T00:16:54.232Z,0.00
2023-07-24T00:17:54.103Z,0.00
2023-07-24T00:18:54.070Z,0.00
2023-07-24T00:19:54.041Z,0.00
2023-07-24T00:20:54.470Z,0.00
2023-07-24T00:21:54.054Z,0.00
2023-07-24T00:22:54.001Z,0.00
2023-07-24T00:23:54.007Z,0.00
2023-07-24T00:24:54.100Z,0.00
2023-07-24T00:25:54.030Z,0.00
2023-07-24T00:26:53.969Z,0.00
2023-07-24T00:27:53.946Z,0.00
2023-07-24T00:28:53.942Z,0.00
2023-07-24T00:29:54.291Z,0.00
2023-07-24T00:30:54.068Z,0.00
2023-07-24T00:31:54.878Z,0.00
2023-07-24T00:32:55.948Z,0.00
2023-07-24T00:33:53.930Z,0.00
2023-07-24T00:34:53.870Z,0.00
2023-07-24T00:35:53.882Z,0.00
2023-07-24T00:36:53.865Z,0.00
2023-07-24T00:37:53.834Z,0.00
2023-07-24T00:38:53.850Z,0.00
2023-07-24T00:39:53.841Z,0.00
2023-07-24T00:40:53.848Z,0.00
2023-07-24T00:41:53.812Z,0.00
2023-07-24T00:42:53.786Z,0.00
2023-07-24T00:43:54.137Z,0.00
2023-07-24T00:44:53.757Z,0.00
2023-07-24T00:45:53.747Z,0.00
2023-07-24T00:46:55.779Z,0.00
2023-07-24T00:47:53.803Z,0.00
2023-07-24T00:48:55.699Z,0.00
2023-07-24T00:49:53.750Z,0.00
2023-07-24T00:50:53.704Z,0.00
2023-07-24T00:51:53.688Z,0.00
2023-07-24T00:52:53.659Z,0.00
2023-07-24T00:53:53.657Z,0.00
2023-07-24T00:54:53.655Z,0.00
2023-07-24T00:55:53.706Z,0.00
2023-07-24T00:56:53.631Z,0.00
2023-07-24T00:57:53.627Z,0.00
2023-07-24T00:58:53.592Z,0.00
2023-07-24T00:59:53.594Z,0.00
2023-07-24T01:00:53.637Z,0.00
2023-07-24T01:01:53.627Z,0.00
2023-07-24T01:02:53.593Z,0.00
2023-07-24T01:03:55.500Z,0.00
2023-07-24T01:04:53.654Z,0.00
2023-07-24T01:05:53.530Z,0.00
2023-07-24T01:06:53.506Z,0.00
2023-07-24T01:07:54.279Z,0.00
2023-07-24T01:08:53.487Z,0.00
2023-07-24T01:09:53.468Z,0.00
2023-07-24T01:10:53.461Z,0.00
2023-07-24T01:11:53.452Z,0.00
2023-07-24T01:12:53.473Z,0.00
2023-07-24T01:13:53.438Z,0.00
2023-07-24T01:14:53.463Z,0.00
2023-07-24T01:15:53.444Z,0.00
2023-07-24T01:16:53.403Z,0.00
2023-07-24T01:17:53.398Z,0.00
2023-07-24T01:18:53.375Z,0.00
2023-07-24T01:19:53.366Z,0.00
2023-07-24T01:20:53.398Z,0.00
2023-07-24T01:21:53.350Z,0.00
2023-07-24T01:22:53.336Z,0.00
2023-07-24T01:23:53.297Z,0.00
2023-07-24T01:24:53.341Z,0.00
2023-07-24T01:25:53.290Z,0.00
2023-07-24T01:26:54.091Z,0.00
2023-07-24T01:27:53.295Z,0.00
2023-07-24T01:28:53.254Z,0.00
2023-07-24T01:29:53.250Z,0.00
2023-07-24T01:30:55.289Z,0.00
2023-07-24T01:31:53.293Z,0.00
2023-07-24T01:32:53.292Z,0.00
2023-07-24T01:33:53.221Z,0.00
2023-07-24T01:34:55.159Z,0.00
2023-07-24T01:35:53.219Z,0.00
2023-07-24T01:36:55.151Z,0.00
2023-07-24T01:37:53.185Z,0.00
2023-07-24T01:38:53.145Z,0.00
2023-07-24T01:39:53.195Z,0.00
2023-07-24T01:40:53.441Z,0.00
2023-07-24T01:41:53.801Z,0.00
2023-07-24T01:42:53.146Z,0.00
2023-07-24T01:43:53.217Z,0.00
2023-07-24T01:44:53.082Z,0.00
2023-07-24T01:45:53.118Z,0.00
2023-07-24T01:46:53.907Z,0.00
2023-07-24T01:47:53.521Z,0.00
2023-07-24T01:48:53.051Z,0.00
2023-07-24T01:49:53.024Z,0.00
2023-07-24T01:50:53.013Z,0.00
2023-07-24T01:51:53.077Z,0.00
2023-07-24T01:52:53.149Z,0.00
2023-07-24T01:53:52.996Z,0.00
2023-07-24T01:54:54.917Z,0.00
2023-07-24T01:55:53.809Z,0.00
2023-07-24T01:56:53.013Z,0.00
2023-07-24T01:57:54.952Z,0.00
2023-07-24T01:58:53.050Z,0.00
2023-07-24T01:59:53.032Z,0.00
2023-07-24T02:00:52.974Z,0.00
2023-07-24T02:01:53.153Z,0.00
2023-07-24T02:02:52.918Z,0.00
2023-07-24T02:03:54.812Z,0.00
2023-07-24T02:04:54.830Z,0.00
2023-07-24T02:05:52.881Z,0.00
2023-07-24T02:06:53.677Z,0.00
2023-07-24T02:07:52.805Z,0.00
2023-07-24T02:08:54.808Z,0.00
2023-07-24T02:09:52.824Z,0.00
2023-07-24T02:10:54.742Z,0.00
2023-07-24T02:11:53.555Z,0.00
2023-07-24T02:12:52.838Z,0.00
2023-07-24T02:13:54.723Z,0.00
2023-07-24T02:14:52.892Z,0.00
2023-07-24T02:15:53.564Z,0.00
2023-07-24T02:16:52.806Z,0.00
2023-07-24T02:17:53.574Z,0.00
2023-07-24T02:18:52.684Z,0.00
2023-07-24T02:19:52.664Z,0.00
2023-07-24T02:20:52.685Z,0.00
2023-07-24T02:21:52.917Z,0.00
2023-07-24T02:22:52.795Z,0.00
2023-07-24T02:23:54.589Z,0.00
2023-07-24T02:24:54.594Z,0.00
2023-07-24T02:25:52.821Z,0.00
2023-07-24T02:26:52.766Z,0.00
2023-07-24T02:27:52.599Z,0.00
2023-07-24T02:28:53.399Z,0.00
2023-07-24T02:29:52.547Z,0.00
2023-07-24T02:30:52.560Z,0.00
2023-07-24T02:31:52.616Z,0.00
2023-07-24T02:32:52.602Z,0.00
2023-07-24T02:33:52.638Z,0.00
2023-07-24T02:34:52.558Z,0.00
2023-07-24T02:35:54.534Z,0.00
2023-07-24T02:36:52.544Z,0.00
2023-07-24T02:37:54.449Z,0.00
2023-07-24T02:38:53.294Z,0.00
2023-07-24T02:39:52.463Z,0.00
2023-07-24T02:40:52.436Z,0.00
2023-07-24T02:41:52.414Z,0.00
2023-07-24T02:42:52.465Z,0.00
2023-07-24T02:43:52.400Z,0.00
2023-07-24T02:44:52.388Z,0.00
2023-07-24T02:45:52.413Z,0.00
2023-07-24T02:46:54.334Z,0.00
2023-07-24T02:47:52.420Z,0.00
2023-07-24T02:48:52.379Z,0.00
2023-07-24T02:49:52.351Z,0.00
2023-07-24T02:50:52.417Z,0.00
2023-07-24T02:51:52.339Z,0.00
2023-07-24T02:52:52.313Z,0.00
2023-07-24T02:53:53.326Z,0.00
2023-07-24T02:54:52.303Z,0.00
2023-07-24T02:55:52.269Z,0.00
2023-07-24T02:56:52.251Z,0.00
2023-07-24T02:57:52.241Z,0.00
2023-07-24T02:58:52.300Z,0.00
2023-07-24T02:59:52.238Z,0.00
2023-07-24T03:00:52.297Z,0.00
2023-07-24T03:01:52.221Z,0.00
2023-07-24T03:02:54.342Z,0.00
2023-07-24T03:03:52.175Z,0.00
2023-07-24T03:04:52.221Z,0.00
2023-07-24T03:05:52.150Z,0.00
2023-07-24T03:06:53.000Z,0.00
2023-07-24T03:07:54.099Z,0.00
2023-07-24T03:08:52.105Z,0.00
2023-07-24T03:09:52.154Z,0.00
2023-07-24T03:10:52.091Z,0.00
2023-07-24T03:11:52.180Z,0.00
2023-07-24T03:12:52.077Z,0.00
2023-07-24T03:13:52.085Z,0.00
2023-07-24T03:14:52.102Z,0.00
2023-07-24T03:15:52.085Z,0.00
2023-07-24T03:16:53.073Z,0.00
2023-07-24T03:17:52.136Z,0.00
2023-07-24T03:18:53.978Z,0.00
2023-07-24T03:19:51.986Z,0.00
2023-07-24T03:20:52.003Z,0.00
2023-07-24T03:21:51.959Z,0.00
2023-07-24T03:22:51.971Z,0.00
2023-07-24T03:23:52.081Z,0.00
2023-07-24T03:24:52.039Z,0.00
2023-07-24T03:25:51.972Z,0.00
2023-07-24T03:26:53.872Z,0.00
2023-07-24T03:27:51.887Z,0.00
2023-07-24T03:28:52.863Z,0.00
2023-07-24T03:29:51.914Z,0.00
2023-07-24T03:30:53.388Z,0.00
2023-07-24T03:31:51.934Z,0.00
2023-07-24T03:32:51.858Z,0.00
2023-07-24T03:33:51.839Z,0.00
2023-07-24T03:34:51.818Z,0.00
2023-07-24T03:35:51.849Z,0.00
2023-07-24T03:36:51.875Z,0.00
2023-07-24T03:37:51.772Z,0.00
2023-07-24T03:38:51.772Z,0.00
2023-07-24T03:39:51.818Z,0.00
2023-07-24T03:40:51.728Z,0.00
2023-07-24T03:41:51.745Z,0.00
2023-07-24T03:42:51.761Z,0.00
2023-07-24T03:43:51.756Z,0.00
2023-07-24T03:44:51.909Z,0.00
2023-07-24T03:45:51.711Z,0.00
2023-07-24T03:46:51.814Z,0.00
2023-07-24T03:47:51.728Z,0.00
2023-07-24T03:48:51.788Z,0.00
2023-07-24T03:49:51.691Z,0.00
2023-07-24T03:50:51.649Z,0.00
2023-07-24T03:51:51.656Z,0.00
2023-07-24T03:52:51.638Z,0.00
2023-07-24T03:53:54.197Z,0.00
2023-07-24T03:54:51.635Z,0.00
2023-07-24T03:55:51.623Z,0.00
2023-07-24T03:56:51.866Z,0.00
2023-07-24T03:57:51.604Z,0.00
2023-07-24T03:58:51.533Z,0.00
2023-07-24T03:59:51.649Z,0.00
2023-07-24T04:00:53.072Z,0.00
2023-07-24T04:01:52.982Z,0.00
2023-07-24T04:02:51.636Z,0.00
2023-07-24T04:03:51.545Z,0.00
2023-07-24T04:04:51.531Z,0.00
2023-07-24T04:05:52.963Z,0.00
2023-07-24T04:06:51.450Z,0.00
2023-07-24T04:07:51.445Z,0.00
2023-07-24T04:08:51.565Z,0.00
2023-07-24T04:09:51.535Z,0.00
2023-07-24T04:10:52.896Z,0.00
2023-07-24T04:11:51.415Z,0.00
2023-07-24T04:12:51.388Z,0.00
2023-07-24T04:13:51.417Z,5.62
2023-07-24T04:14:52.837Z,0.00
2023-07-24T04:15:51.428Z,0.00
2023-07-24T04:16:51.381Z,0.00
2023-07-24T04:17:52.338Z,0.00
2023-07-24T04:18:51.455Z,0.00
2023-07-24T04:19:51.322Z,0.00
2023-07-24T04:20:52.779Z,0.00
2023-07-24T04:21:51.333Z,0.00
2023-07-24T04:22:51.278Z,0.00
2023-07-24T04:23:51.250Z,0.00
2023-07-24T04:24:51.388Z,0.00
2023-07-24T04:25:51.255Z,0.00
2023-07-24T04:26:52.704Z,0.00
2023-07-24T04:27:51.290Z,0.00
2023-07-24T04:28:51.236Z,0.00
2023-07-24T04:29:51.210Z,0.00
2023-07-24T04:30:51.207Z,0.00
2023-07-24T04:31:51.220Z,0.00
2023-07-24T04:32:52.646Z,0.00
2023-07-24T04:33:51.168Z,0.00
2023-07-24T04:34:51.167Z,5.62
2023-07-24T04:35:51.156Z,5.62
2023-07-24T04:36:51.973Z,5.62
2023-07-24T04:37:51.098Z,5.62
2023-07-24T04:38:51.117Z,5.62
2023-07-24T04:39:52.030Z,5.62
2023-07-24T04:40:51.120Z,5.62
2023-07-24T04:41:52.534Z,5.62
2023-07-24T04:42:51.046Z,11.25
2023-07-24T04:43:52.498Z,11.25
2023-07-24T04:44:51.052Z,11.25
2023-07-24T04:45:51.075Z,11.25
2023-07-24T04:46:51.062Z,11.25
2023-07-24T04:47:52.509Z,11.25
2023-07-24T04:48:51.781Z,11.25
2023-07-24T04:49:51.050Z,11.25
2023-07-24T04:50:50.970Z,11.25
2023-07-24T04:51:50.994Z,16.88
2023-07-24T04:52:50.936Z,22.50
2023-07-24T04:53:50.937Z,22.50
2023-07-24T04:54:51.412Z,22.50
2023-07-24T04:55:52.368Z,22.50
2023-07-24T04:56:50.922Z,22.50
2023-07-24T04:58:01.486Z,22.50
2023-07-24T04:58:50.932Z,22.50
2023-07-24T04:59:52.337Z,22.50
2023-07-24T05:00:51.633Z,28.12
2023-07-24T05:01:50.885Z,28.12
2023-07-24T05:02:51.829Z,22.50
2023-07-24T05:03:51.613Z,22.50
2023-07-24T05:04:50.869Z,16.88
2023-07-24T05:05:50.842Z,11.25
2023-07-24T05:06:50.905Z,16.88
2023-07-24T05:07:50.777Z,16.88
2023-07-24T05:08:50.744Z,16.88
2023-07-24T05:09:50.733Z,22.50
2023-07-24T05:10:50.735Z,28.12
2023-07-24T05:11:50.818Z,28.12
2023-07-24T05:12:50.724Z,28.12
2023-07-24T05:13:50.692Z,28.12
2023-07-24T05:14:50.695Z,28.12
2023-07-24T05:15:50.927Z,28.12
2023-07-24T05:16:50.748Z,28.12
2023-07-24T05:17:50.749Z,28.12
2023-07-24T05:18:50.635Z,28.12
2023-07-24T05:19:50.676Z,22.50
2023-07-24T05:20:50.605Z,22.50
2023-07-24T05:21:52.139Z,22.50
2023-07-24T05:22:50.584Z,22.50
2023-07-24T05:23:50.629Z,22.50
2023-07-24T05:24:52.116Z,22.50
2023-07-24T05:25:50.561Z,22.50
2023-07-24T05:26:50.584Z,22.50
2023-07-24T05:27:50.557Z,22.50
2023-07-24T05:28:50.581Z,22.50
2023-07-24T05:29:50.557Z,22.50
2023-07-24T05:30:50.493Z,28.12
2023-07-24T05:31:50.545Z,39.38
2023-07-24T05:32:50.576Z,39.38
2023-07-24T05:33:51.292Z,33.75
2023-07-24T05:34:51.945Z,22.50
2023-07-24T05:35:51.260Z,22.50
2023-07-24T05:36:50.434Z,22.50
2023-07-24T05:37:50.439Z,39.38
2023-07-24T05:38:50.409Z,33.75
2023-07-24T05:39:50.432Z,28.12
2023-07-24T05:40:50.440Z,33.75
2023-07-24T05:41:50.411Z,45.00
2023-07-24T05:42:51.894Z,56.25
2023-07-24T05:43:50.371Z,45.00
2023-07-24T05:44:50.344Z,50.62
2023-07-24T05:45:50.375Z,39.38
2023-07-24T05:46:50.519Z,61.88
2023-07-24T05:47:51.202Z,67.50
2023-07-24T05:48:51.128Z,67.50
2023-07-24T05:49:50.290Z,67.50
2023-07-24T05:50:50.398Z,67.50
2023-07-24T05:51:51.889Z,73.12
2023-07-24T05:52:50.255Z,73.12
2023-07-24T05:53:50.619Z,78.75
2023-07-24T05:54:50.239Z,84.38
2023-07-24T05:55:50.226Z,73.12
2023-07-24T05:56:50.334Z,67.50
2023-07-24T05:57:50.198Z,50.62
2023-07-24T05:58:50.186Z,39.38
2023-07-24T05:59:50.209Z,33.75
2023-07-24T06:00:50.178Z,39.38
2023-07-24T06:01:50.205Z,61.88
2023-07-24T06:02:51.194Z,73.12
2023-07-24T06:03:50.165Z,67.50
2023-07-24T06:04:50.137Z,61.88
2023-07-24T06:05:51.974Z,67.50
2023-07-24T06:06:50.088Z,67.50
2023-07-24T06:07:50.102Z,90.00
2023-07-24T06:08:50.108Z,67.50
2023-07-24T06:09:50.077Z,61.88
2023-07-24T06:10:50.071Z,56.25
2023-07-24T06:11:50.044Z,56.25
2023-07-24T06:12:50.023Z,56.25
2023-07-24T06:13:50.028Z,61.88
2023-07-24T06:14:50.221Z,67.50
2023-07-24T06:15:50.200Z,67.50
2023-07-24T06:16:50.587Z,67.50
2023-07-24T06:17:51.811Z,61.88
2023-07-24T06:18:50.027Z,56.25
2023-07-24T06:19:50.128Z,61.88
2023-07-24T06:20:50.082Z,61.88
2023-07-24T06:21:49.955Z,67.50
2023-07-24T06:22:50.926Z,67.50
2023-07-24T06:23:51.888Z,84.38
2023-07-24T06:24:49.951Z,73.12
2023-07-24T06:25:49.952Z,56.25
2023-07-24T06:26:49.901Z,56.25
2023-07-24T06:27:51.868Z,50.62
2023-07-24T06:28:49.978Z,56.25
2023-07-24T06:29:53.300Z,50.62
2023-07-24T06:30:50.850Z,61.88
2023-07-24T06:31:49.860Z,67.50
2023-07-24T06:32:49.930Z,56.25
2023-07-24T06:33:49.859Z,50.62
2023-07-24T06:34:50.108Z,67.50
2023-07-24T06:35:49.784Z,61.88
2023-07-24T06:36:49.753Z,61.88
2023-07-24T06:37:49.750Z,67.50
2023-07-24T06:38:49.755Z,73.12
2023-07-24T06:39:50.246Z,78.75
2023-07-24T06:40:49.729Z,95.62
2023-07-24T06:41:49.729Z,106.88
2023-07-24T06:42:49.692Z,106.88
2023-07-24T06:43:49.725Z,112.50
2023-07-24T06:44:49.680Z,123.75
2023-07-24T06:45:51.669Z,129.38
2023-07-24T06:46:49.827Z,129.38
2023-07-24T06:47:49.739Z,135.00
2023-07-24T06:48:49.756Z,135.00
2023-07-24T06:49:49.686Z,135.00
2023-07-24T06:50:51.639Z,140.62
2023-07-24T06:51:51.934Z,135.00
2023-07-24T06:52:49.569Z,146.25
2023-07-24T06:53:51.519Z,151.88
2023-07-24T06:54:49.559Z,157.50
2023-07-24T06:55:50.351Z,129.38
2023-07-24T06:56:51.522Z,118.12
2023-07-24T06:57:49.546Z,78.75
2023-07-24T06:58:49.658Z,50.62
2023-07-24T06:59:50.335Z,50.62
2023-07-24T07:00:49.481Z,73.12
2023-07-24T07:01:49.616Z,67.50
2023-07-24T07:02:51.464Z,67.50
2023-07-24T07:03:49.514Z,56.25
2023-07-24T07:04:50.273Z,56.25
2023-07-24T07:05:49.448Z,45.00
2023-07-24T07:06:51.428Z,50.62
2023-07-24T07:07:50.365Z,50.62
2023-07-24T07:08:49.510Z,45.00
2023-07-24T07:09:49.405Z,56.25
2023-07-24T07:10:49.437Z,56.25
2023-07-24T07:11:49.512Z,61.88
2023-07-24T07:12:49.366Z,67.50
2023-07-24T07:13:51.325Z,61.88
2023-07-24T07:14:49.419Z,67.50
2023-07-24T07:15:50.209Z,61.88
2023-07-24T07:16:49.360Z,33.75
2023-07-24T07:17:49.340Z,28.12
2023-07-24T07:18:49.297Z,28.12
2023-07-24T07:19:49.314Z,33.75
2023-07-24T07:20:51.270Z,28.12
2023-07-24T07:21:49.277Z,33.75
2023-07-24T07:22:49.365Z,45.00
2023-07-24T07:23:49.335Z,33.75
2023-07-24T07:24:51.214Z,28.12
2023-07-24T07:25:49.219Z,28.12
2023-07-24T07:26:49.206Z,33.75
2023-07-24T07:27:51.645Z,33.75
2023-07-24T07:28:49.255Z,39.38
2023-07-24T07:29:49.325Z,45.00
2023-07-24T07:30:49.572Z,50.62
2023-07-24T07:31:49.179Z,50.62
2023-07-24T07:32:49.235Z,73.12
2023-07-24T07:33:49.131Z,61.88
2023-07-24T07:34:49.127Z,73.12
2023-07-24T07:35:49.123Z,67.50
2023-07-24T07:36:49.096Z,84.38
2023-07-24T07:37:49.078Z,84.38
2023-07-24T07:38:49.062Z,84.38
2023-07-24T07:39:49.075Z,95.62
2023-07-24T07:40:49.397Z,95.62
2023-07-24T07:41:49.049Z,101.25
2023-07-24T07:42:49.076Z,78.75
2023-07-24T07:43:51.463Z,84.38
2023-07-24T07:44:49.802Z,67.50
2023-07-24T07:45:48.996Z,50.62
2023-07-24T07:46:50.952Z,45.00
2023-07-24T07:47:49.000Z,39.38
2023-07-24T07:48:48.983Z,39.38
2023-07-24T07:49:48.952Z,39.38
2023-07-24T07:50:48.962Z,39.38
2023-07-24T07:51:48.934Z,33.75
2023-07-24T07:52:48.908Z,28.12
2023-07-24T07:53:50.932Z,22.50
2023-07-24T07:54:49.012Z,33.75
2023-07-24T07:55:48.865Z,45.00
2023-07-24T07:56:50.820Z,50.62
2023-07-24T07:57:49.013Z,33.75
2023-07-24T07:58:49.043Z,28.12
2023-07-24T07:59:48.834Z,33.75
2023-07-24T08:00:48.883Z,67.50
2023-07-24T08:01:49.146Z,84.38
2023-07-24T08:02:48.854Z,73.12
2023-07-24T08:03:48.875Z,78.75
2023-07-24T08:04:48.832Z,112.50
2023-07-24T08:05:48.793Z,123.75
2023-07-24T08:06:49.450Z,118.12
2023-07-24T08:07:48.869Z,118.12
2023-07-24T08:08:48.901Z,146.25
2023-07-24T08:09:48.740Z,146.25
2023-07-24T08:10:48.748Z,157.50
2023-07-24T08:11:48.798Z,151.88
2023-07-24T08:12:49.688Z,140.62
2023-07-24T08:13:48.708Z,140.62
2023-07-24T08:14:48.688Z,140.62
2023-07-24T08:15:48.786Z,129.38
2023-07-24T08:16:48.946Z,135.00
2023-07-24T08:17:48.698Z,140.62
2023-07-24T08:18:48.626Z,174.38
2023-07-24T08:19:48.645Z,213.75
2023-07-24T08:20:48.834Z,230.62
2023-07-24T08:21:48.604Z,208.12
2023-07-24T08:22:49.396Z,174.38
2023-07-24T08:23:48.562Z,135.00
2023-07-24T08:24:49.418Z,168.75
2023-07-24T08:25:48.553Z,106.88
2023-07-24T08:26:50.042Z,90.00
2023-07-24T08:28:03.662Z,78.75
2023-07-24T08:28:49.669Z,67.50
2023-07-24T08:29:48.538Z,45.00
2023-07-24T08:30:48.532Z,50.62
2023-07-24T08:31:48.511Z,73.12
2023-07-24T08:32:48.475Z,106.88
2023-07-24T08:33:48.462Z,95.62
2023-07-24T08:34:48.490Z,151.88
2023-07-24T08:35:48.532Z,168.75
2023-07-24T08:36:48.414Z,106.88
2023-07-24T08:37:48.422Z,78.75
2023-07-24T08:38:48.420Z,84.38
2023-07-24T08:39:48.389Z,73.12
2023-07-24T08:40:48.441Z,78.75
2023-07-24T08:41:48.619Z,61.88
2023-07-24T08:42:48.371Z,67.50
2023-07-24T08:43:48.351Z,73.12
2023-07-24T08:44:48.350Z,78.75
2023-07-24T08:45:48.349Z,78.75
2023-07-24T08:46:48.623Z,56.25
2023-07-24T08:47:49.210Z,67.50
2023-07-24T08:48:48.304Z,73.12
2023-07-24T08:49:48.515Z,95.62
2023-07-24T08:50:48.268Z,101.25
2023-07-24T08:51:48.312Z,84.38
2023-07-24T08:52:48.592Z,112.50
2023-07-24T08:53:48.246Z,168.75
2023-07-24T08:54:48.209Z,140.62
2023-07-24T08:55:48.210Z,163.12
2023-07-24T08:56:48.561Z,191.25
2023-07-24T08:57:48.198Z,146.25
2023-07-24T08:58:48.211Z,106.88
2023-07-24T08:59:48.200Z,163.12
2023-07-24T09:00:48.177Z,146.25
2023-07-24T09:01:48.155Z,140.62
2023-07-24T09:02:48.399Z,196.88
2023-07-24T09:03:49.176Z,168.75
2023-07-24T09:04:48.105Z,225.00
2023-07-24T09:05:48.156Z,146.25
2023-07-24T09:06:48.144Z,157.50
2023-07-24T09:07:48.119Z,146.25
2023-07-24T09:08:48.079Z,208.12
2023-07-24T09:09:48.069Z,191.25
2023-07-24T09:10:48.085Z,180.00
2023-07-24T09:11:48.053Z,185.62
2023-07-24T09:12:48.145Z,180.00
2023-07-24T09:13:48.036Z,180.00
2023-07-24T09:14:47.999Z,168.75
2023-07-24T09:15:48.159Z,151.88
2023-07-24T09:16:48.153Z,213.75
2023-07-24T09:17:47.977Z,225.00
2023-07-24T09:19:48.928Z,196.88
2023-07-24T09:20:48.262Z,151.88
2023-07-24T09:21:47.944Z,101.25
2023-07-24T09:23:10.206Z,95.62
2023-07-24T09:23:49.717Z,101.25
2023-07-24T09:24:47.949Z,112.50
2023-07-24T09:25:47.925Z,112.50
2023-07-24T09:26:47.898Z,135.00
2023-07-24T09:27:48.170Z,140.62
2023-07-24T09:28:48.151Z,146.25
2023-07-24T09:29:47.869Z,151.88
2023-07-24T09:30:48.094Z,157.50
2023-07-24T09:31:47.813Z,140.62
2023-07-24T09:32:49.797Z,151.88
2023-07-24T09:33:47.801Z,191.25
2023-07-24T09:34:47.836Z,213.75
2023-07-24T09:35:47.783Z,213.75
2023-07-24T09:36:48.108Z,196.88
2023-07-24T09:37:48.591Z,213.75
2023-07-24T09:38:47.737Z,213.75
2023-07-24T09:39:47.767Z,208.12
2023-07-24T09:40:47.951Z,202.50
2023-07-24T09:41:47.712Z,213.75
2023-07-24T09:43:14.078Z,208.12
2023-07-24T09:43:48.881Z,196.88
2023-07-24T09:44:47.680Z,180.00
2023-07-24T09:45:47.689Z,168.75
2023-07-24T09:47:53.667Z,140.62
2023-07-24T09:49:08.583Z,135.00
2023-07-24T09:49:48.718Z,157.50
2023-07-24T09:50:47.615Z,174.38
2023-07-24T09:51:47.667Z,185.62
2023-07-24T09:52:47.564Z,180.00
2023-07-24T09:53:49.563Z,180.00
2023-07-24T09:54:47.547Z,185.62
2023-07-24T09:55:47.537Z,185.62
2023-07-24T09:56:55.340Z,174.38
2023-07-24T09:57:48.572Z,168.75
2023-07-24T09:58:47.519Z,157.50
2023-07-24T09:59:47.513Z,174.38
2023-07-24T10:00:47.508Z,180.00
2023-07-24T10:01:47.525Z,180.00
2023-07-24T10:02:47.591Z,185.62
2023-07-24T10:03:47.552Z,196.88
2023-07-24T10:04:47.586Z,191.25
2023-07-24T10:05:47.440Z,208.12
2023-07-24T10:06:49.448Z,208.12
2023-07-24T10:07:47.408Z,196.88
2023-07-24T10:08:47.449Z,230.62
2023-07-24T10:09:47.436Z,196.88
2023-07-24T10:10:47.372Z,185.62
2023-07-24T10:11:47.370Z,157.50
2023-07-24T10:12:47.408Z,168.75
2023-07-24T10:13:47.374Z,202.50
2023-07-24T10:14:47.373Z,258.75
2023-07-24T10:15:47.349Z,270.00
2023-07-24T10:16:49.247Z,264.38
2023-07-24T10:17:47.352Z,275.62
2023-07-24T10:18:47.330Z,247.50
2023-07-24T10:19:47.282Z,208.12
2023-07-24T10:20:47.286Z,191.25
2023-07-24T10:21:47.277Z,180.00
2023-07-24T10:22:47.271Z,163.12
2023-07-24T10:23:47.264Z,191.25
2023-07-24T10:24:47.232Z,208.12
2023-07-24T10:25:47.220Z,157.50
2023-07-24T10:26:47.197Z,129.38
2023-07-24T10:27:47.214Z,118.12
2023-07-24T10:28:47.178Z,84.38
2023-07-24T10:29:47.188Z,67.50
2023-07-24T10:30:48.159Z,78.75
2023-07-24T10:31:47.201Z,95.62
2023-07-24T10:32:47.191Z,78.75
2023-07-24T10:33:47.292Z,67.50
2023-07-24T10:34:47.131Z,39.38
2023-07-24T10:35:48.080Z,22.50
2023-07-24T10:36:49.044Z,22.50
2023-07-24T10:37:49.032Z,33.75
2023-07-24T10:38:47.069Z,39.38
2023-07-24T10:39:47.038Z,73.12
2023-07-24T10:40:47.074Z,95.62
2023-07-24T10:41:47.043Z,112.50
2023-07-24T10:42:47.036Z,112.50
2023-07-24T10:43:48.567Z,118.12
2023-07-24T10:44:47.014Z,118.12
2023-07-24T10:45:47.041Z,146.25
2023-07-24T10:46:46.994Z,146.25
2023-07-24T10:47:47.036Z,101.25
2023-07-24T10:48:46.972Z,73.12
2023-07-24T10:49:47.090Z,78.75
2023-07-24T10:50:47.781Z,95.62
2023-07-24T10:51:48.893Z,101.25
2023-07-24T10:52:46.942Z,84.38
2023-07-24T10:53:46.906Z,61.88
2023-07-24T10:54:46.909Z,61.88
2023-07-24T10:55:46.870Z,84.38
2023-07-24T10:56:47.528Z,95.62
2023-07-24T10:57:46.854Z,78.75
2023-07-24T10:58:46.824Z,78.75
2023-07-24T10:59:47.645Z,135.00
2023-07-24T11:00:46.832Z,264.38
2023-07-24T11:01:46.837Z,225.00
2023-07-24T11:02:46.890Z,118.12
2023-07-24T11:03:46.760Z,61.88
2023-07-24T11:04:46.842Z,45.00
2023-07-24T11:05:46.776Z,45.00
2023-07-24T11:06:46.762Z,50.62
2023-07-24T11:07:46.726Z,67.50
2023-07-24T11:08:46.795Z,84.38
2023-07-24T11:09:46.692Z,61.88
2023-07-24T11:10:46.737Z,45.00
2023-07-24T11:11:46.721Z,33.75
2023-07-24T11:12:46.690Z,22.50
2023-07-24T11:13:46.668Z,16.88
2023-07-24T11:14:46.696Z,11.25
2023-07-24T11:15:46.700Z,11.25
2023-07-24T11:16:46.645Z,11.25
2023-07-24T11:17:49.158Z,11.25
2023-07-24T11:18:53.315Z,5.62
2023-07-24T11:19:47.678Z,5.62
2023-07-24T11:20:47.574Z,11.25
2023-07-24T11:21:46.586Z,16.88
2023-07-24T11:22:46.569Z,11.25
2023-07-24T11:23:46.609Z,11.25
2023-07-24T11:24:46.601Z,11.25
2023-07-24T11:25:46.519Z,11.25
2023-07-24T11:26:46.546Z,11.25
2023-07-24T11:27:46.495Z,5.62
2023-07-24T11:28:46.486Z,11.25
2023-07-24T11:29:46.501Z,11.25
2023-07-24T11:30:46.489Z,16.88
2023-07-24T11:31:46.665Z,16.88
2023-07-24T11:32:48.466Z,16.88
2023-07-24T11:33:46.446Z,22.50
2023-07-24T11:34:46.486Z,22.50
2023-07-24T11:35:46.441Z,22.50
2023-07-24T11:36:46.433Z,22.50
2023-07-24T11:37:46.435Z,16.88
2023-07-24T11:38:46.399Z,22.50
2023-07-24T11:39:47.835Z,22.50
2023-07-24T11:40:46.411Z,22.50
2023-07-24T11:41:46.375Z,28.12
2023-07-24T11:42:46.338Z,28.12
2023-07-24T11:43:46.329Z,28.12
2023-07-24T11:44:46.341Z,28.12
2023-07-24T11:45:46.311Z,28.12
2023-07-24T11:46:47.102Z,28.12
2023-07-24T11:47:46.340Z,28.12
2023-07-24T11:48:46.311Z,33.75
2023-07-24T11:49:48.254Z,39.38
2023-07-24T11:50:46.466Z,39.38
2023-07-24T11:51:48.209Z,50.62
2023-07-24T11:52:46.224Z,56.25
2023-07-24T11:53:46.263Z,61.88
2023-07-24T11:54:48.162Z,78.75
2023-07-24T11:55:48.155Z,84.38
2023-07-24T11:56:48.153Z,112.50
2023-07-24T11:57:48.130Z,163.12
2023-07-24T11:58:48.164Z,213.75
2023-07-24T11:59:46.998Z,270.00
2023-07-24T12:00:46.152Z,264.38
2023-07-24T12:01:46.140Z,343.12
2023-07-24T12:02:47.052Z,247.50
2023-07-24T12:03:47.652Z,236.25
2023-07-24T12:04:47.570Z,225.00
2023-07-24T12:05:48.613Z,208.12
2023-07-24T12:06:47.543Z,219.38
2023-07-24T12:07:46.100Z,191.25
2023-07-24T12:08:46.062Z,157.50
2023-07-24T12:09:46.125Z,191.25
2023-07-24T12:10:46.023Z,253.12
2023-07-24T12:11:46.883Z,275.62
2023-07-24T12:12:47.356Z,326.25
2023-07-24T12:13:46.025Z,337.50
2023-07-24T12:14:45.980Z,360.00
2023-07-24T12:15:45.987Z,354.38
2023-07-24T12:16:45.953Z,371.25
2023-07-24T12:17:46.009Z,371.25
2023-07-24T12:18:45.931Z,461.25
2023-07-24T12:19:45.930Z,315.00
2023-07-24T12:20:45.935Z,185.62
2023-07-24T12:21:46.138Z,196.88
2023-07-24T12:22:45.947Z,236.25
2023-07-24T12:23:45.896Z,258.75
2023-07-24T12:24:45.890Z,191.25
2023-07-24T12:25:47.331Z,208.12
2023-07-24T12:26:45.888Z,140.62
2023-07-24T12:27:45.890Z,151.88
2023-07-24T12:28:45.849Z,140.62
2023-07-24T12:29:45.848Z,123.75
2023-07-24T12:30:45.843Z,146.25
2023-07-24T12:31:45.790Z,157.50
2023-07-24T12:32:45.860Z,146.25
2023-07-24T12:33:45.804Z,112.50
2023-07-24T12:34:45.752Z,135.00
2023-07-24T12:35:45.805Z,163.12
2023-07-24T12:36:47.226Z,208.12
2023-07-24T12:37:45.729Z,208.12
2023-07-24T12:38:45.700Z,253.12
2023-07-24T12:39:45.760Z,230.62
2023-07-24T12:40:45.684Z,253.12
2023-07-24T12:41:45.718Z,236.25
2023-07-24T12:42:45.728Z,202.50
2023-07-24T12:43:45.680Z,236.25
2023-07-24T12:44:45.652Z,281.25
2023-07-24T12:45:46.025Z,241.88
2023-07-24T12:46:47.125Z,315.00
2023-07-24T12:47:45.674Z,2559.38
2023-07-24T12:48:45.688Z,2002.50
2023-07-24T12:49:45.597Z,2160.00
2023-07-24T12:50:45.575Z,2311.88
2023-07-24T12:51:45.590Z,2435.62
2023-07-24T12:52:45.555Z,2160.00
2023-07-24T12:53:53.056Z,1164.38
2023-07-24T12:55:00.135Z,1901.25
2023-07-24T12:55:46.569Z,1361.25
2023-07-24T12:56:45.523Z,1147.50